Wild Boar Gully, Santa Catalina Island Weather observations

Data are for 10 minute period ending at time listed.
 Day   Time   Solar   Ave.   Ave.  Ave.  Vector    Max.   Stn.    Total
  of    of     Rad.   Air    Rel.  Wind   Wind     Wind   Baro.  Precip.
Year   Day            Temp.  Hum.  Speed  Dir.     Gust   Pres.         
2015   (PST)   W/m2    F      %     mph   deg.      mph    mb.     in.  
------------------------------------------------------------------------
  56   20:20    0.0    58   59.4     2     36.0     3.0    999.0   0.00  
  56   20:30    0.0    58   60.5     2     66.6     2.4    999.0   0.00  
  56   20:40    0.0    58   60.4     2     66.5     4.2    999.0   0.00  
  56   20:50    0.0    58   59.6     3     49.8     6.6    999.0   0.00  
  56   21:00    0.0    59   57.8     6     32.3    11.3    999.0   0.00  
  56   21:10    0.0    59   55.6     4     28.5     9.6    999.0   0.00  
  56   21:20    0.0    59   52.3     2     75.2     4.8    999.0   0.00  
  56   21:30    0.0    59   51.8     2     53.8     3.6    999.0   0.00  
  56   21:40    0.0    58   51.9     2     88.6     3.6    999.0   0.00  
  56   21:50    0.0    58   53.4     1     68.8     2.4    999.0   0.00  
  56   22:00    0.0    57   50.4     3     61.3     4.2    999.0   0.00  
  56   22:10    0.0    58   46.1     2     93.9     4.8    999.0   0.00  
  56   22:20    0.0    59   54.2     2    153.1     4.2    999.0   0.00  
  56   22:30    0.0    58   53.6     2     69.9     4.2    999.0   0.00  
  56   22:40    0.0    57   60.7     3     90.7     4.8    999.0   0.00  
  56   22:50    0.0    57   74.7     4     95.1     4.8    999.0   0.00  
  56   23:00    0.0    56   77.1     4     98.1     6.0    999.0   0.00  
  56   23:10    0.0    56   74.3     4     65.6     6.0    999.0   0.00  
  56   23:20    0.0    57   55.2     2     71.7     4.2    999.0   0.00  
  56   23:30    0.0    58   46.2     1     61.6     1.8    999.0   0.00  
  56   23:40    0.0    58   47.5     2     47.0     2.4    999.0   0.00  
  56   23:50    0.0    57   55.5     1     52.7     1.8    999.0   0.00  
  57    0:00    0.0    57   64.2     1     90.6     1.8    999.0   0.00  
  57    0:10    0.0    57   68.2     1     76.7     2.4    999.0   0.00  
  57    0:20    0.0    56   68.8     2     93.3     4.2    999.0   0.00  
  57    0:30    0.0    56   70.4     3     99.0     4.8    999.0   0.00  
  57    0:40    0.0    56   77.6     3     95.1     4.2    999.0   0.00  
  57    0:50    0.0    55   79.5     3     99.4     5.4    999.0   0.00  
  57    1:00    0.0    56   81.6     6     71.0     7.8    999.0   0.00  
  57    1:10    0.0    57   83.2     7     74.4     9.0    999.0   0.00  
  57    1:20    0.0    57   84.0     6     77.9     8.4    999.0   0.00  
  57    1:30    0.0    56   83.7     5     99.5     9.0    999.0   0.00  
  57    1:40    0.0    57   83.8     8     79.7     9.0    999.0   0.00  
  57    1:50    0.0    57   83.9     6     83.4     9.0    999.0   0.00  
  57    2:00    0.0    56   83.8     5     96.2     8.4    999.0   0.00  
  57    2:10    0.0    56   83.9     6     86.6     9.0    999.0   0.00  
  57    2:20    0.0    56   84.2    10     76.0    11.9    999.0   0.00  
  57    2:30    0.0    57   84.2    10     79.8    11.9    999.0   0.00  
  57    2:40    0.0    57   84.5     9     76.7    11.9    999.0   0.00  
  57    2:50    0.0    57   84.7     9     78.2    10.2    999.0   0.00  
  57    3:00    0.0    57   85.0     9     77.8    11.3    999.0   0.00  
  57    3:10    0.0    57   85.1     8     97.2    11.3    999.0   0.00  
  57    3:20    0.0    56   85.2     7     72.3     9.6    999.0   0.00  
  57    3:30    0.0    56   85.2     6     81.6     7.2    999.0   0.00  
  57    3:40    0.0    56   85.5     6     74.7     7.8    999.0   0.00  
  57    3:50    0.0    57   85.6     6     76.5     8.4    999.0   0.00  
  57    4:00    0.0    57   85.6     7     78.8    10.2    999.0   0.00  
  57    4:10    0.0    57   85.5     7     77.4     9.0    999.0   0.00  
  57    4:20    0.0    56   85.3     6     80.5     9.6    999.0   0.00  
  57    4:30    0.0    56   85.2     6     80.4     8.4    999.0   0.00  
  57    4:40    0.0    56   85.2     5     66.9     7.2    999.0   0.00  
  57    4:50    0.0    55   85.0     4     62.8     5.4    999.0   0.00  
  57    5:00    0.0    55   85.3     4     68.6     6.0    999.0   0.00  
  57    5:10    0.0    56   85.2     1     92.1     3.6    999.0   0.00  
  57    5:20    0.0    56   85.4     1     86.4     3.0    999.0   0.00  
  57    5:30    0.0    56   85.3     3     96.2     4.8    999.0   0.00  
  57    5:40    0.0    57   85.2     1     71.8     4.2    999.0   0.00  
  57    5:50    0.0    57   84.9     1     19.4     2.4    999.0   0.00  
  57    6:00    0.0    57   84.9     1     19.5     1.8    999.0   0.00  
  57    6:10    0.0    56   84.5     1     41.7     4.2    999.0   0.00  
  57    6:20    1.0    54   84.5     3     42.8     6.0    999.0   0.00  
  57    6:30    3.0    54   84.1     1     33.7     3.0    999.0   0.00  
  57    6:40    9.0    54   83.9     2    326.8     4.8    999.0   0.00  
  57    6:50   14.0    55   83.4     1    347.9     3.6    999.0   0.00  
  57    7:00   34.0    55   83.2     1    356.3     1.8    999.0   0.00  
  57    7:10   42.0    56   82.9     1     30.5     2.4    999.0   0.00  
  57    7:20  102.0    57   82.7     1     52.4     1.8    999.0   0.00  
  57    7:30  131.0    58   81.5     2     45.7     3.6    999.0   0.00  
  57    7:40  157.0    59   80.6     1     53.0     2.4    999.0   0.00  
  57    7:50  187.0    61   78.5     1     26.7     1.2    999.0   0.00  
  57    8:00  216.0    62   76.1     1    234.4     1.8    999.0   0.00  
  57    8:10  234.0    61   76.5     2    223.3     3.6    999.0   0.00  
  57    8:20  265.0    61   77.3     2    237.7     3.6    999.0   0.00  
  57    8:30  292.0    61   77.4     2    228.7     3.0    999.0   0.00  
  57    8:40  321.0    61   77.3     1    230.9     3.0    999.0   0.00  
  57    8:50  346.0    61   76.6     2    246.2     4.2    999.0   0.00  
  57    9:00  371.0    61   77.7     4    224.5     6.0    999.0   0.00  
  57    9:10  404.0    61   78.1     4    238.4     6.0    999.0   0.00  
  57    9:20  391.0    61   78.5     3    223.1     4.8    999.0   0.00  
  57    9:30  446.0    62   77.1     2    222.8     5.4    999.0   0.00  
  57    9:40  470.0    62   76.7     3    215.3     6.0    999.0   0.00  
  57    9:50  489.0    63   74.6     3    203.5     6.0    999.0   0.00  
  57   10:00  493.0    63   75.2     4    236.8     6.6    999.0   0.00  
  57   10:10  533.0    61   77.6     5    241.8     7.8    999.0   0.00  
  57   10:20  506.0    62   77.1     4    227.8     7.2    999.0   0.00  
  57   10:30  486.0    63   75.7     4    194.5     6.0    999.0   0.00  
  57   10:40  525.0    64   74.0     3    199.8     6.0    999.0   0.00  
  57   10:50  633.0    64   73.7     4    217.1     6.6    999.0   0.00  
  57   11:00  509.0    63   74.4     4    245.2     6.6    999.0   0.00  
  57   11:10  648.0    64   74.8     4    228.4     8.4    999.0   0.00  
  57   11:20  673.0    63   75.7     4    246.7     7.8    999.0   0.00  
  57   11:30  670.0    65   72.6     4    171.7     7.8    999.0   0.00  
  57   11:40  516.0    63   73.8     5    150.7     9.0    999.0   0.00  
  57   11:50  662.0    64   74.3     5    162.9     8.4    999.0   0.00  
  57   12:00  650.0    64   74.4     6    142.5     9.0    999.0   0.00  
  57   12:10  639.0    64   74.2     6    147.2     9.6    999.0   0.00  
  57   12:20  530.0    64   74.2     5    154.4     8.4    999.0   0.00  
  57   12:30  580.0    64   74.2     5    145.8     9.6    999.0   0.00  
  57   12:40  502.0    63   75.3     4    170.6     7.2    999.0   0.00  
  57   12:50  653.0    64   74.6     5    164.4     7.8    999.0   0.00  
  57   13:00  582.0    64   73.7     4    154.2     7.8    999.0   0.00  
  57   13:10  603.0    63   75.0     5    153.7     8.4    999.0   0.00  
  57   13:20  617.0    64   72.2     4    170.1     7.2    999.0   0.00  
  57   13:30  592.0    64   71.9     5    180.3     7.8    999.0   0.00  
  57   13:40  349.0    64   72.9     4    169.0     7.2    999.0   0.00  
  57   13:50  550.0    64   72.5     4    190.7     7.2    999.0   0.00  
  57   14:00  556.0    65   71.2     4    225.5     9.0    999.0   0.00  
  57   14:10  538.0    64   72.0     5    242.2     9.6    999.0   0.00  
  57   14:20  509.0    64   73.1     6    242.6     9.6    999.0   0.00  
  57   14:30  495.0    64   73.4     6    246.6     9.6    999.0   0.00  
  57   14:40  491.0    63   74.0     5    242.1     9.6    999.0   0.00  
  57   14:50  458.0    63   74.5     6    236.2     9.0    999.0   0.00  
  57   15:00  441.0    63   74.1     5    233.1     8.4    999.0   0.00  
  57   15:10  392.0    64   73.6     5    235.5     7.8    999.0   0.00  
  57   15:20  403.0    63   74.0     4    235.0     8.4    999.0   0.00  
  57   15:30  309.0    64   73.7     6    234.6     8.4    999.0   0.00  
  57   15:40  308.0    63   74.7     6    235.7     9.0    999.0   0.00  
  57   15:50  284.0    63   74.9     5    230.6     8.4    999.0   0.00  
  57   16:00  276.0    63   74.6     6    232.1     8.4    999.0   0.00  
  57   16:10  238.0    62   75.3     6    229.5     8.4    999.0   0.00  
  57   16:20  202.0    63   75.4     6    227.4     9.0    999.0   0.00  
  57   16:30  157.0    62   75.9     6    233.0     7.8    999.0   0.00  
  57   16:40  180.0    63   74.6     6    236.3     9.0    999.0   0.00  
  57   16:50  150.0    63   74.7     7    236.4    10.2    999.0   0.00  
  57   17:00  121.0    62   75.6     6    244.9     9.0    999.0   0.00  
  57   17:10   91.0    62   75.4     6    248.9     9.0    999.0   0.00  
  57   17:20   57.0    62   76.8     6    244.1     9.0    999.0   0.00  
  57   17:30   34.0    62   77.3     5    256.6     8.4    999.0   0.00  
  57   17:40   18.0    61   78.0     5    264.8     7.8    999.0   0.00  
  57   17:50    8.0    60   78.9     6    272.7     8.4    999.0   0.00  
  57   18:00    3.0    60   79.9     4    270.6     6.6    999.0   0.00  
  57   18:10    1.0    59   80.9     6    266.5     9.0    999.0   0.00  
  57   18:20    0.0    59   81.0     4    328.0     6.6    999.0   0.00  
  57   18:30    0.0    59   80.8     9     38.2    11.9    999.0   0.00  
  57   18:40    0.0    59   80.2     8     34.5    12.5    999.0   0.00  
  57   18:50    0.0    59   78.1     2     92.8     7.2    999.0   0.00  
  57   19:00    0.0    59   78.1     1    113.0     3.0    999.0   0.00  
  57   19:10    0.0    58   77.9     3     91.0     4.2    999.0   0.00  
  57   19:20    0.0    59   79.0     5    112.1     7.2    999.0   0.00  
  57   19:30    0.0    58   78.9     6     74.0     7.8    999.0   0.00  
  57   19:40    0.0    58   76.5     3    104.6     5.4    999.0   0.00  
  57   19:50    0.0    59   76.5     2    126.9     4.8    999.0   0.00  
  57   20:00    0.0    58   77.4     3     86.6     4.8    999.0   0.00  
  57   20:10    0.0    58   79.9     3     97.5     4.8    999.0   0.00  

Return to Wild Boar Gully graphs page.


Western Regional Climate Center,wrcc@dri.edu